createdAt,value
2022-09-23T00:00:32.999Z,2.10
2022-09-23T00:01:33.017Z,2.40
2022-09-23T00:02:33.058Z,2.40
2022-09-23T00:03:32.971Z,2.40
2022-09-23T00:04:32.960Z,2.30
2022-09-23T00:05:32.942Z,2.40
2022-09-23T00:06:32.963Z,2.10
2022-09-23T00:07:32.947Z,2.20
2022-09-23T00:08:32.912Z,2.10
2022-09-23T00:09:32.902Z,2.20
2022-09-23T00:10:32.890Z,2.50
2022-09-23T00:11:32.886Z,2.60
2022-09-23T00:12:32.862Z,2.20
2022-09-23T00:13:32.882Z,2.40
2022-09-23T00:14:32.929Z,2.30
2022-09-23T00:15:32.840Z,2.60
2022-09-23T00:16:39.955Z,2.10
2022-09-23T00:17:32.819Z,2.40
2022-09-23T00:18:32.805Z,2.70
2022-09-23T00:19:32.816Z,2.30
2022-09-23T00:20:32.784Z,2.20
2022-09-23T00:21:32.768Z,2.30
2022-09-23T00:22:32.756Z,2.10
2022-09-23T00:23:32.748Z,1.90
2022-09-23T00:24:32.766Z,1.90
2022-09-23T00:25:32.727Z,1.90
2022-09-23T00:26:32.717Z,1.80
2022-09-23T00:27:32.707Z,2.00
2022-09-23T00:28:32.696Z,1.70
2022-09-23T00:29:32.685Z,1.90
2022-09-23T00:30:32.780Z,2.00
2022-09-23T00:31:32.666Z,2.30
2022-09-23T00:32:32.646Z,2.30
2022-09-23T00:33:32.640Z,1.90
2022-09-23T00:34:32.645Z,2.00
2022-09-23T00:35:32.633Z,2.10
2022-09-23T00:36:32.597Z,2.00
2022-09-23T00:37:32.594Z,1.90
2022-09-23T00:38:32.608Z,2.10
2022-09-23T00:39:32.576Z,2.00
2022-09-23T00:40:32.618Z,2.10
2022-09-23T00:41:32.550Z,2.40
2022-09-23T00:42:32.538Z,2.40
2022-09-23T00:43:32.526Z,2.60
2022-09-23T00:44:32.537Z,2.10
2022-09-23T00:45:32.516Z,2.00
2022-09-23T00:46:32.545Z,2.00
2022-09-23T00:47:32.489Z,1.80
2022-09-23T00:48:32.476Z,1.80
2022-09-23T00:49:32.488Z,2.20
2022-09-23T00:50:32.453Z,2.10
2022-09-23T00:51:32.448Z,1.80
2022-09-23T00:52:32.429Z,2.40
2022-09-23T00:53:32.426Z,2.30
2022-09-23T00:54:32.427Z,2.20
2022-09-23T00:55:32.398Z,2.10
2022-09-23T00:56:32.393Z,2.60
2022-09-23T00:57:32.397Z,2.20
2022-09-23T00:58:32.367Z,2.10
2022-09-23T00:59:32.360Z,2.50
2022-09-23T01:00:32.339Z,2.30
2022-09-23T01:01:32.357Z,2.40
2022-09-23T01:02:32.380Z,2.00
2022-09-23T01:03:32.310Z,2.20
2022-09-23T01:04:32.317Z,2.40
2022-09-23T01:05:32.287Z,1.80
2022-09-23T01:06:32.276Z,2.20
2022-09-23T01:07:32.269Z,2.10
2022-09-23T01:08:32.249Z,1.80
2022-09-23T01:09:32.269Z,2.00
2022-09-23T01:10:32.230Z,2.10
2022-09-23T01:11:32.218Z,2.00
2022-09-23T01:12:32.237Z,2.10
2022-09-23T01:13:32.205Z,2.20
2022-09-23T01:14:32.209Z,1.90
2022-09-23T01:15:32.179Z,2.00
2022-09-23T01:16:32.186Z,2.20
2022-09-23T01:17:32.157Z,2.10
2022-09-23T01:18:32.140Z,2.20
2022-09-23T01:19:32.150Z,2.00
2022-09-23T01:20:32.119Z,2.30
2022-09-23T01:21:32.119Z,2.10
2022-09-23T01:22:32.099Z,2.10
2022-09-23T01:23:32.090Z,1.90
2022-09-23T01:24:32.100Z,2.20
2022-09-23T01:25:32.069Z,2.10
2022-09-23T01:26:32.051Z,2.00
2022-09-23T01:27:32.045Z,1.80
2022-09-23T01:28:32.031Z,2.30
2022-09-23T01:29:32.021Z,1.90
2022-09-23T01:30:32.037Z,2.20
2022-09-23T01:31:32.010Z,2.60
2022-09-23T01:32:31.992Z,2.00
2022-09-23T01:33:31.990Z,1.90
2022-09-23T01:34:31.970Z,2.20
2022-09-23T01:35:31.998Z,2.20
2022-09-23T01:36:31.972Z,2.10
2022-09-23T01:37:31.941Z,2.50
2022-09-23T01:38:31.930Z,2.20
2022-09-23T01:39:31.910Z,2.00
2022-09-23T01:40:31.917Z,2.60
2022-09-23T01:41:31.910Z,1.90
2022-09-23T01:42:31.878Z,2.00
2022-09-23T01:43:31.871Z,2.60
2022-09-23T01:44:31.859Z,2.10
2022-09-23T01:45:31.873Z,2.30
2022-09-23T01:46:31.848Z,2.30
2022-09-23T01:47:31.829Z,2.30
2022-09-23T01:48:31.857Z,2.60
2022-09-23T01:49:31.810Z,2.20
2022-09-23T01:50:31.813Z,2.30
2022-09-23T01:51:31.807Z,2.40
2022-09-23T01:52:31.770Z,2.30
2022-09-23T01:53:31.762Z,2.60
2022-09-23T01:54:31.748Z,2.10
2022-09-23T01:55:31.739Z,2.40
2022-09-23T01:56:31.741Z,2.30
2022-09-23T01:57:31.711Z,2.50
2022-09-23T01:58:31.702Z,2.30
2022-09-23T01:59:31.692Z,2.40
2022-09-23T02:00:31.689Z,2.30
2022-09-23T02:01:31.756Z,2.30
2022-09-23T02:02:31.693Z,2.50
2022-09-23T02:03:31.651Z,2.50
2022-09-23T02:04:31.640Z,2.60
2022-09-23T02:05:31.633Z,2.40
2022-09-23T02:06:31.639Z,2.40
2022-09-23T02:07:31.609Z,2.30
2022-09-23T02:08:31.593Z,2.40
2022-09-23T02:09:31.589Z,2.60
2022-09-23T02:10:31.571Z,2.60
2022-09-23T02:11:31.582Z,2.10
2022-09-23T02:12:31.551Z,2.80
2022-09-23T02:13:31.541Z,2.80
2022-09-23T02:14:31.535Z,2.50
2022-09-23T02:15:31.523Z,2.40
2022-09-23T02:16:31.586Z,2.30
2022-09-23T02:17:31.515Z,2.20
2022-09-23T02:18:31.482Z,1.90
2022-09-23T02:19:31.472Z,2.30
2022-09-23T02:20:31.461Z,2.20
2022-09-23T02:21:31.503Z,2.20
2022-09-23T02:22:31.443Z,2.70
2022-09-23T02:23:31.431Z,2.20
2022-09-23T02:24:31.413Z,2.40
2022-09-23T02:25:31.412Z,2.10
2022-09-23T02:26:31.394Z,2.50
2022-09-23T02:27:31.407Z,2.40
2022-09-23T02:28:31.381Z,2.40
2022-09-23T02:29:31.365Z,2.30
2022-09-23T02:30:31.353Z,2.60
2022-09-23T02:31:31.362Z,2.20
2022-09-23T02:32:31.353Z,2.20
2022-09-23T02:33:31.323Z,2.20
2022-09-23T02:34:31.315Z,2.50
2022-09-23T02:35:31.312Z,2.20
2022-09-23T02:36:31.285Z,2.30
2022-09-23T02:37:31.275Z,2.30
2022-09-23T02:38:31.283Z,2.20
2022-09-23T02:39:31.256Z,2.30
2022-09-23T02:40:31.280Z,2.30
2022-09-23T02:41:31.233Z,2.60
2022-09-23T02:42:31.214Z,2.30
2022-09-23T02:43:31.234Z,2.40
2022-09-23T02:44:31.193Z,2.30
2022-09-23T02:45:31.257Z,2.40
2022-09-23T02:46:31.194Z,2.10
2022-09-23T02:47:31.173Z,2.40
2022-09-23T02:48:31.181Z,2.40
2022-09-23T02:49:31.147Z,2.30
2022-09-23T02:50:31.134Z,2.30
2022-09-23T02:51:31.123Z,2.40
2022-09-23T02:52:31.112Z,2.60
2022-09-23T02:53:31.127Z,2.70
2022-09-23T02:54:31.093Z,2.40
2022-09-23T02:55:31.076Z,2.40
2022-09-23T02:56:31.064Z,2.80
2022-09-23T02:57:31.053Z,2.90
2022-09-23T02:58:31.053Z,2.10
2022-09-23T02:59:31.055Z,2.30
2022-09-23T03:00:31.025Z,2.40
2022-09-23T03:01:31.055Z,2.40
2022-09-23T03:02:31.086Z,2.20
2022-09-23T03:03:31.014Z,2.30
2022-09-23T03:04:30.985Z,2.40
2022-09-23T03:05:30.963Z,2.50
2022-09-23T03:06:30.955Z,2.60
2022-09-23T03:07:30.944Z,2.50
2022-09-23T03:08:30.963Z,2.40
2022-09-23T03:09:30.925Z,2.30
2022-09-23T03:10:30.915Z,2.50
2022-09-23T03:11:30.903Z,2.50
2022-09-23T03:12:30.894Z,2.50
2022-09-23T03:13:30.883Z,2.20
2022-09-23T03:14:30.895Z,2.30
2022-09-23T03:15:30.855Z,2.10
2022-09-23T03:16:30.914Z,2.30
2022-09-23T03:17:30.836Z,2.30
2022-09-23T03:18:30.827Z,2.20
2022-09-23T03:19:30.815Z,2.00
2022-09-23T03:20:30.826Z,2.40
2022-09-23T03:21:30.794Z,2.20
2022-09-23T03:22:30.786Z,2.40
2022-09-23T03:23:30.775Z,2.20
2022-09-23T03:24:30.767Z,2.10
2022-09-23T03:25:30.773Z,2.20
2022-09-23T03:26:30.745Z,2.20
2022-09-23T03:27:30.724Z,2.70
2022-09-23T03:28:30.717Z,2.20
2022-09-23T03:29:30.703Z,2.00
2022-09-23T03:30:30.696Z,2.10
2022-09-23T03:31:30.810Z,2.20
2022-09-23T03:32:30.681Z,2.30
2022-09-23T03:33:30.655Z,2.50
2022-09-23T03:34:30.655Z,2.20
2022-09-23T03:35:30.636Z,2.40
2022-09-23T03:36:30.653Z,2.20
2022-09-23T03:37:30.616Z,2.50
2022-09-23T03:38:30.606Z,2.30
2022-09-23T03:39:30.618Z,2.40
2022-09-23T03:40:30.622Z,2.30
2022-09-23T03:41:30.574Z,2.00
2022-09-23T03:42:30.567Z,2.40
2022-09-23T03:43:30.557Z,2.30
2022-09-23T03:44:30.566Z,2.60
2022-09-23T03:45:30.577Z,2.50
2022-09-23T03:46:30.516Z,2.10
2022-09-23T03:47:30.509Z,2.20
2022-09-23T03:48:30.498Z,2.70
2022-09-23T03:49:30.505Z,2.20
2022-09-23T03:50:30.484Z,2.00
2022-09-23T03:51:30.463Z,2.20
2022-09-23T03:52:30.454Z,2.50
2022-09-23T03:53:30.437Z,2.20
2022-09-23T03:54:30.453Z,2.50
2022-09-23T03:55:30.423Z,2.70
2022-09-23T03:56:30.408Z,2.40
2022-09-23T03:57:30.396Z,2.30
2022-09-23T03:58:30.386Z,2.40
2022-09-23T03:59:30.405Z,2.70
2022-09-23T04:00:30.370Z,2.20
2022-09-23T04:01:30.347Z,2.40
2022-09-23T04:02:30.398Z,2.60
2022-09-23T04:03:30.326Z,2.60
2022-09-23T04:04:30.345Z,2.50
2022-09-23T04:05:30.329Z,2.60
2022-09-23T04:06:30.326Z,2.30
2022-09-23T04:07:30.286Z,2.50
2022-09-23T04:08:30.278Z,2.30
2022-09-23T04:09:30.264Z,2.50
2022-09-23T04:10:30.278Z,2.30
2022-09-23T04:11:30.248Z,2.30
2022-09-23T04:12:30.237Z,2.10
2022-09-23T04:13:30.217Z,2.10
2022-09-23T04:14:30.214Z,2.40
2022-09-23T04:15:30.200Z,2.20
2022-09-23T04:16:30.241Z,2.30
2022-09-23T04:17:30.180Z,2.30
2022-09-23T04:18:30.168Z,2.70
2022-09-23T04:19:30.198Z,2.20
2022-09-23T04:20:30.148Z,2.90
2022-09-23T04:21:30.168Z,2.50
2022-09-23T04:22:30.156Z,2.50
2022-09-23T04:23:30.117Z,2.20
2022-09-23T04:24:30.107Z,2.40
2022-09-23T04:25:30.331Z,2.60
2022-09-23T04:26:30.110Z,2.60
2022-09-23T04:27:33.081Z,2.50
2022-09-23T04:28:31.057Z,2.30
2022-09-23T04:29:30.049Z,2.20
2022-09-23T04:30:30.036Z,2.40
2022-09-23T04:31:30.112Z,2.40
2022-09-23T04:32:30.018Z,2.50
2022-09-23T04:33:30.047Z,2.40
2022-09-23T04:34:29.998Z,2.30
2022-09-23T04:35:29.980Z,2.20
2022-09-23T04:36:29.977Z,2.40
2022-09-23T04:37:29.960Z,2.60
2022-09-23T04:38:29.948Z,2.50
2022-09-23T04:39:29.957Z,2.40
2022-09-23T04:40:29.974Z,2.10
2022-09-23T04:41:29.918Z,2.20
2022-09-23T04:42:29.911Z,2.40
2022-09-23T04:43:29.900Z,2.30
2022-09-23T04:44:29.890Z,2.30
2022-09-23T04:45:29.897Z,2.40
2022-09-23T04:46:29.906Z,2.70
2022-09-23T04:47:29.850Z,2.30
2022-09-23T04:48:29.840Z,2.10
2022-09-23T04:49:29.837Z,2.20
2022-09-23T04:50:30.149Z,2.40
2022-09-23T04:51:29.834Z,2.50
2022-09-23T04:52:29.800Z,2.40
2022-09-23T04:53:29.787Z,2.20
2022-09-23T04:54:29.810Z,2.40
2022-09-23T04:55:29.791Z,2.40
2022-09-23T04:56:29.758Z,2.40
2022-09-23T04:57:29.738Z,2.40
2022-09-23T04:58:29.738Z,2.60
2022-09-23T04:59:29.719Z,2.20
2022-09-23T05:00:29.816Z,2.40
2022-09-23T05:01:29.748Z,2.60
2022-09-23T05:02:29.738Z,2.40
2022-09-23T05:03:29.678Z,2.30
2022-09-23T05:04:29.669Z,2.20
2022-09-23T05:05:29.679Z,2.50
2022-09-23T05:06:29.649Z,2.40
2022-09-23T05:07:29.631Z,2.50
2022-09-23T05:08:29.630Z,2.10
2022-09-23T05:09:29.608Z,2.20
2022-09-23T05:10:29.628Z,2.50
2022-09-23T05:11:29.588Z,2.40
2022-09-23T05:12:29.590Z,2.70
2022-09-23T05:13:29.568Z,2.40
2022-09-23T05:14:29.700Z,2.40
2022-09-23T05:15:29.548Z,2.40
2022-09-23T05:16:29.636Z,2.30
2022-09-23T05:17:29.526Z,2.10
2022-09-23T05:18:29.519Z,2.20
2022-09-23T05:19:29.508Z,2.30
2022-09-23T05:20:29.491Z,2.30
2022-09-23T05:21:29.510Z,2.40
2022-09-23T05:22:29.491Z,2.40
2022-09-23T05:23:29.960Z,2.10
2022-09-23T05:24:29.450Z,2.60
2022-09-23T05:25:29.439Z,2.40
2022-09-23T05:26:29.484Z,2.40
2022-09-23T05:27:29.419Z,2.40
2022-09-23T05:28:29.410Z,2.10
2022-09-23T05:29:29.398Z,2.40
2022-09-23T05:30:29.390Z,2.50
2022-09-23T05:31:29.487Z,2.40
2022-09-23T05:32:29.390Z,2.40
2022-09-23T05:33:29.352Z,2.70
2022-09-23T05:34:29.348Z,2.40
2022-09-23T05:35:29.330Z,2.60
2022-09-23T05:36:31.217Z,2.30
2022-09-23T05:37:30.309Z,2.70
2022-09-23T05:38:29.322Z,2.20
2022-09-23T05:39:29.283Z,2.10
2022-09-23T05:40:29.349Z,2.20
2022-09-23T05:41:29.305Z,2.60
2022-09-23T05:42:29.261Z,2.30
2022-09-23T05:43:29.285Z,2.20
2022-09-23T05:44:29.239Z,2.10
2022-09-23T05:45:29.220Z,2.60
2022-09-23T05:46:29.289Z,2.30
2022-09-23T05:47:29.199Z,2.20
2022-09-23T05:48:29.191Z,2.40
2022-09-23T05:49:48.239Z,2.40
2022-09-23T05:50:30.179Z,2.70
2022-09-23T05:51:31.194Z,2.40
2022-09-23T05:52:29.148Z,2.30
2022-09-23T05:53:29.139Z,2.50
2022-09-23T05:54:29.124Z,2.30
2022-09-23T05:55:29.110Z,2.40
2022-09-23T05:56:29.101Z,2.80
2022-09-23T05:57:29.119Z,2.60
2022-09-23T05:58:29.086Z,3.00
2022-09-23T05:59:29.071Z,2.30
2022-09-23T06:00:29.136Z,2.50
2022-09-23T06:01:29.092Z,2.40
2022-09-23T06:02:29.116Z,2.80
2022-09-23T06:03:29.079Z,2.50
2022-09-23T06:04:29.053Z,2.90
2022-09-23T06:05:29.011Z,2.60
2022-09-23T06:06:29.002Z,2.70
2022-09-23T06:07:28.982Z,2.70
2022-09-23T06:08:28.990Z,2.20
2022-09-23T06:09:32.828Z,2.40
2022-09-23T06:10:29.951Z,2.50
2022-09-23T06:11:28.941Z,2.40
2022-09-23T06:12:28.951Z,2.60
2022-09-23T06:13:28.923Z,2.50
2022-09-23T06:14:28.909Z,2.70
2022-09-23T06:15:28.900Z,2.30
2022-09-23T06:16:28.949Z,2.60
2022-09-23T06:17:28.892Z,2.80
2022-09-23T06:18:28.869Z,2.40
2022-09-23T06:19:28.874Z,2.60
2022-09-23T06:20:28.843Z,2.50
2022-09-23T06:21:28.828Z,2.80
2022-09-23T06:22:28.831Z,2.60
2022-09-23T06:23:28.812Z,2.50
2022-09-23T06:24:31.624Z,2.60
2022-09-23T06:25:28.783Z,2.60
2022-09-23T06:26:28.784Z,2.60
2022-09-23T06:27:28.762Z,2.60
2022-09-23T06:28:28.761Z,2.40
2022-09-23T06:29:28.772Z,2.90
2022-09-23T06:30:28.733Z,2.80
2022-09-23T06:31:28.770Z,2.90
2022-09-23T06:32:28.720Z,2.90
2022-09-23T06:33:35.651Z,2.80
2022-09-23T06:34:30.650Z,2.80
2022-09-23T06:35:28.671Z,2.70
2022-09-23T06:36:40.362Z,2.90
2022-09-23T06:37:29.652Z,3.20
2022-09-23T06:38:28.653Z,3.10
2022-09-23T06:39:28.660Z,3.20
2022-09-23T06:40:28.673Z,3.10
2022-09-23T06:41:28.612Z,2.90
2022-09-23T06:42:28.631Z,3.20
2022-09-23T06:43:28.592Z,3.10
2022-09-23T06:44:28.583Z,2.90
2022-09-23T06:45:28.565Z,3.10
2022-09-23T06:46:28.607Z,2.90
2022-09-23T06:47:28.541Z,3.00
2022-09-23T06:48:28.567Z,3.10
2022-09-23T06:49:28.543Z,2.80
2022-09-23T06:50:28.513Z,2.80
2022-09-23T06:51:28.503Z,3.00
2022-09-23T06:52:28.494Z,3.20
2022-09-23T06:53:28.489Z,2.80
2022-09-23T06:54:28.475Z,2.90
2022-09-23T06:55:28.482Z,3.10
2022-09-23T06:56:28.457Z,3.00
2022-09-23T06:57:28.432Z,2.90
2022-09-23T06:58:28.425Z,2.40
2022-09-23T06:59:28.413Z,3.00
2022-09-23T07:00:28.425Z,2.70
2022-09-23T07:01:28.451Z,3.40
2022-09-23T07:02:28.453Z,2.60
2022-09-23T07:03:28.366Z,2.60
2022-09-23T07:04:29.432Z,2.80
2022-09-23T07:05:28.375Z,2.90
2022-09-23T07:06:28.357Z,3.00
2022-09-23T07:07:28.325Z,2.90
2022-09-23T07:08:28.326Z,2.40
2022-09-23T07:09:28.309Z,3.00
2022-09-23T07:10:28.317Z,2.90
2022-09-23T07:11:28.303Z,2.80
2022-09-23T07:12:28.265Z,2.90
2022-09-23T07:13:28.264Z,3.10
2022-09-23T07:14:28.246Z,2.90
2022-09-23T07:15:28.243Z,2.70
2022-09-23T07:16:28.286Z,3.00
2022-09-23T07:17:28.215Z,2.90
2022-09-23T07:18:29.468Z,2.80
2022-09-23T07:19:28.193Z,2.70
2022-09-23T07:20:28.184Z,2.80
2022-09-23T07:21:28.201Z,3.00
2022-09-23T07:22:28.196Z,2.80
2022-09-23T07:23:28.182Z,2.70
2022-09-23T07:24:28.134Z,2.90
2022-09-23T07:25:28.125Z,2.60
2022-09-23T07:26:28.115Z,2.70
2022-09-23T07:27:28.126Z,2.60
2022-09-23T07:28:28.221Z,2.80
2022-09-23T07:29:29.121Z,2.60
2022-09-23T07:30:28.076Z,2.90
2022-09-23T07:31:38.760Z,2.50
2022-09-23T07:32:34.126Z,2.90
2022-09-23T07:33:32.533Z,2.70
2022-09-23T07:34:28.032Z,2.60
2022-09-23T07:35:28.029Z,2.50
2022-09-23T07:36:28.030Z,2.70
2022-09-23T07:37:28.006Z,2.30
2022-09-23T07:38:27.993Z,2.70
2022-09-23T07:39:28.010Z,2.90
2022-09-23T07:40:27.996Z,2.60
2022-09-23T07:41:27.965Z,2.40
2022-09-23T07:42:27.947Z,2.20
2022-09-23T07:43:27.936Z,2.30
2022-09-23T07:44:27.946Z,2.60
2022-09-23T07:45:27.919Z,2.20
2022-09-23T07:46:27.960Z,2.50
2022-09-23T07:47:27.906Z,2.30
2022-09-23T07:48:31.939Z,2.60
2022-09-23T07:49:28.887Z,2.20
2022-09-23T07:50:27.856Z,2.10
2022-09-23T07:51:31.924Z,2.10
2022-09-23T07:52:28.838Z,1.80
2022-09-23T07:53:27.828Z,1.90
2022-09-23T07:54:27.854Z,2.20
2022-09-23T07:55:27.810Z,1.90
2022-09-23T07:56:27.787Z,1.90
2022-09-23T07:57:27.779Z,1.70
2022-09-23T07:58:27.775Z,2.20
2022-09-23T07:59:27.760Z,1.90
2022-09-23T08:00:27.767Z,2.00
2022-09-23T08:01:27.788Z,2.00
2022-09-23T08:02:27.803Z,2.20
2022-09-23T08:03:27.716Z,1.90
2022-09-23T08:04:27.704Z,2.00
2022-09-23T08:05:27.709Z,2.30
2022-09-23T08:06:27.679Z,2.10
2022-09-23T08:07:27.679Z,1.60
2022-09-23T08:08:27.658Z,1.50
2022-09-23T08:09:27.650Z,2.00
2022-09-23T08:10:27.660Z,1.70
2022-09-23T08:11:27.628Z,1.90
2022-09-23T08:12:27.617Z,1.80
2022-09-23T08:13:27.606Z,1.90
2022-09-23T08:14:27.591Z,1.80
2022-09-23T08:15:27.643Z,1.70
2022-09-23T08:16:27.639Z,1.80
2022-09-23T08:17:27.561Z,1.60
2022-09-23T08:18:27.550Z,1.60
2022-09-23T08:19:27.543Z,1.80
2022-09-23T08:20:27.551Z,1.80
2022-09-23T08:21:27.541Z,2.00
2022-09-23T08:22:27.509Z,1.90
2022-09-23T08:23:27.528Z,1.60
2022-09-23T08:24:27.491Z,1.80
2022-09-23T08:25:27.522Z,1.50
2022-09-23T08:26:27.480Z,2.00
2022-09-23T08:27:27.467Z,1.80
2022-09-23T08:28:27.442Z,1.90
2022-09-23T08:29:27.431Z,1.80
2022-09-23T08:30:27.420Z,1.70
2022-09-23T08:31:27.531Z,1.60
2022-09-23T08:32:27.393Z,1.60
2022-09-23T08:33:27.382Z,1.60
2022-09-23T08:34:27.383Z,1.90
2022-09-23T08:35:27.363Z,1.50
2022-09-23T08:36:27.380Z,1.70
2022-09-23T08:37:27.375Z,1.90
2022-09-23T08:38:27.335Z,1.60
2022-09-23T08:39:27.325Z,2.10
2022-09-23T08:40:27.342Z,1.80
2022-09-23T08:41:27.301Z,2.10
2022-09-23T08:42:27.284Z,1.80
2022-09-23T08:43:27.307Z,1.80
2022-09-23T08:44:27.268Z,1.60
2022-09-23T08:45:27.258Z,1.70
2022-09-23T08:46:27.271Z,1.60
2022-09-23T08:47:27.255Z,1.70
2022-09-23T08:48:27.224Z,1.80
2022-09-23T08:49:27.216Z,1.60
2022-09-23T08:50:27.198Z,1.80
2022-09-23T08:51:27.215Z,1.90
2022-09-23T08:52:27.176Z,1.80
2022-09-23T08:53:27.196Z,1.60
2022-09-23T08:54:27.156Z,2.00
2022-09-23T08:55:27.147Z,1.80
2022-09-23T08:56:27.134Z,1.50
2022-09-23T08:57:27.127Z,1.70
2022-09-23T08:58:27.267Z,1.60
2022-09-23T08:59:27.265Z,1.60
2022-09-23T09:00:27.088Z,1.70
2022-09-23T09:01:27.150Z,1.90
2022-09-23T09:02:27.101Z,1.40
2022-09-23T09:03:27.058Z,1.60
2022-09-23T09:04:27.047Z,1.60
2022-09-23T09:05:27.059Z,1.80
2022-09-23T09:06:27.029Z,1.60
2022-09-23T09:07:42.479Z,1.50
2022-09-23T09:08:28.020Z,1.80
2022-09-23T09:09:26.990Z,1.70
2022-09-23T09:10:27.000Z,1.50
2022-09-23T09:11:26.969Z,1.90
2022-09-23T09:12:26.957Z,1.70
2022-09-23T09:13:26.970Z,1.60
2022-09-23T09:14:26.942Z,1.50
2022-09-23T09:15:26.977Z,1.50
2022-09-23T09:16:48.337Z,1.70
2022-09-23T09:17:31.722Z,1.60
2022-09-23T09:18:27.891Z,1.60
2022-09-23T09:19:26.881Z,1.50
2022-09-23T09:20:26.881Z,1.70
2022-09-23T09:21:26.873Z,1.70
2022-09-23T09:22:26.919Z,1.50
2022-09-23T09:23:26.841Z,1.50
2022-09-23T09:24:26.822Z,1.40
2022-09-23T09:25:30.856Z,1.90
2022-09-23T09:26:27.814Z,1.50
2022-09-23T09:27:26.825Z,1.70
2022-09-23T09:28:26.781Z,1.60
2022-09-23T09:29:35.894Z,1.50
2022-09-23T09:30:27.753Z,1.70
2022-09-23T09:31:26.832Z,1.70
2022-09-23T09:32:26.733Z,1.80
2022-09-23T09:33:26.753Z,1.50
2022-09-23T09:34:26.743Z,1.90
2022-09-23T09:35:26.704Z,1.50
2022-09-23T09:36:26.712Z,1.80
2022-09-23T09:37:26.685Z,1.80
2022-09-23T09:38:26.683Z,1.80
2022-09-23T09:39:26.664Z,1.50
2022-09-23T09:40:26.744Z,1.40
2022-09-23T09:41:26.646Z,1.80
2022-09-23T09:42:26.626Z,1.60
2022-09-23T09:43:26.625Z,1.60
2022-09-23T09:44:26.640Z,1.50
2022-09-23T09:45:26.610Z,1.40
2022-09-23T09:46:26.647Z,1.50
2022-09-23T09:47:26.575Z,1.50
2022-09-23T09:48:26.585Z,1.50
2022-09-23T09:49:26.598Z,1.50
2022-09-23T09:50:26.818Z,1.60
2022-09-23T09:51:26.536Z,1.70
2022-09-23T09:52:26.517Z,1.80
2022-09-23T09:53:26.482Z,1.50
2022-09-23T09:54:26.469Z,2.00
2022-09-23T09:55:26.452Z,1.70
2022-09-23T09:56:26.480Z,1.50
2022-09-23T09:57:26.956Z,1.70
2022-09-23T09:58:26.413Z,1.30
2022-09-23T09:59:26.411Z,1.60
2022-09-23T10:00:26.384Z,1.50
2022-09-23T10:01:26.437Z,1.60
2022-09-23T10:02:26.410Z,1.70
2022-09-23T10:03:26.342Z,1.40
2022-09-23T10:04:26.392Z,1.70
2022-09-23T10:05:26.325Z,1.40
2022-09-23T10:06:26.356Z,1.50
2022-09-23T10:07:26.302Z,1.50
2022-09-23T10:08:26.282Z,1.60
2022-09-23T10:09:26.284Z,1.30
2022-09-23T10:10:32.748Z,1.60
2022-09-23T10:11:27.273Z,1.50
2022-09-23T10:12:26.243Z,1.50
2022-09-23T10:13:26.234Z,1.50
2022-09-23T10:14:26.219Z,1.40
2022-09-23T10:15:26.211Z,1.30
2022-09-23T10:16:26.243Z,1.40
2022-09-23T10:17:26.193Z,1.60
2022-09-23T10:18:26.172Z,1.60
2022-09-23T10:19:26.172Z,1.40
2022-09-23T10:20:26.180Z,1.50
2022-09-23T10:21:28.060Z,1.30
2022-09-23T10:22:26.163Z,1.50
2022-09-23T10:23:26.122Z,1.30
2022-09-23T10:24:26.148Z,1.60
2022-09-23T10:25:26.104Z,1.70
2022-09-23T10:26:26.111Z,1.60
2022-09-23T10:27:26.106Z,1.30
2022-09-23T10:28:26.074Z,1.40
2022-09-23T10:29:26.082Z,1.40
2022-09-23T10:30:26.045Z,1.30
2022-09-23T10:31:26.067Z,1.40
2022-09-23T10:32:26.035Z,1.50
2022-09-23T10:33:26.015Z,1.50
2022-09-23T10:34:26.070Z,1.30
2022-09-23T10:35:26.067Z,1.50
2022-09-23T10:36:25.978Z,1.30
2022-09-23T10:37:26.066Z,1.30
2022-09-23T10:38:26.001Z,1.30
2022-09-23T10:39:25.958Z,1.50
2022-09-23T10:40:25.968Z,1.30
2022-09-23T10:41:34.541Z,1.30
2022-09-23T10:42:25.939Z,1.20
2022-09-23T10:43:26.022Z,1.20
2022-09-23T10:44:25.900Z,1.10
2022-09-23T10:45:25.893Z,1.60
2022-09-23T10:46:25.932Z,1.30
2022-09-23T10:47:25.872Z,1.60
2022-09-23T10:48:25.893Z,1.30
2022-09-23T10:49:25.850Z,1.30
2022-09-23T10:50:25.843Z,1.00
2022-09-23T10:51:26.389Z,1.10
2022-09-23T10:52:25.836Z,1.40
2022-09-23T10:53:25.818Z,1.50
2022-09-23T10:54:25.819Z,1.40
2022-09-23T10:55:25.790Z,1.40
2022-09-23T10:56:25.777Z,1.10
2022-09-23T10:57:25.771Z,1.30
2022-09-23T10:58:25.779Z,1.30
2022-09-23T10:59:25.770Z,1.30
2022-09-23T11:00:25.731Z,1.00
2022-09-23T11:01:25.764Z,1.10
2022-09-23T11:02:25.721Z,1.40
2022-09-23T11:03:25.702Z,1.20
2022-09-23T11:04:25.737Z,1.50
2022-09-23T11:05:25.684Z,1.20
2022-09-23T11:06:25.666Z,1.40
2022-09-23T11:07:25.662Z,0.90
2022-09-23T11:08:25.645Z,1.10
2022-09-23T11:09:25.666Z,1.30
2022-09-23T11:10:44.933Z,1.20
2022-09-23T11:11:26.618Z,1.10
2022-09-23T11:12:25.618Z,1.50
2022-09-23T11:13:25.601Z,1.40
2022-09-23T11:14:25.591Z,1.20
2022-09-23T11:15:25.599Z,1.50
2022-09-23T11:16:25.616Z,1.20
2022-09-23T11:17:25.551Z,1.20
2022-09-23T11:18:25.543Z,1.00
2022-09-23T11:19:25.534Z,1.40
2022-09-23T11:20:25.564Z,1.20
2022-09-23T11:21:25.531Z,1.10
2022-09-23T11:22:25.533Z,1.30
2022-09-23T11:23:25.505Z,1.40
2022-09-23T11:24:25.485Z,1.20
2022-09-23T11:25:25.467Z,1.10
2022-09-23T11:26:30.466Z,1.40
2022-09-23T11:27:26.475Z,1.00
2022-09-23T11:28:25.447Z,1.10
2022-09-23T11:29:25.436Z,1.30
2022-09-23T11:30:25.448Z,1.10
2022-09-23T11:31:25.408Z,1.40
2022-09-23T11:32:25.410Z,1.10
2022-09-23T11:33:25.409Z,1.20
2022-09-23T11:34:25.381Z,1.30
2022-09-23T11:35:25.377Z,1.40
2022-09-23T11:36:25.365Z,1.20
2022-09-23T11:37:25.343Z,1.40
2022-09-23T11:38:25.361Z,1.30
2022-09-23T11:39:25.325Z,1.20
2022-09-23T11:40:25.360Z,1.30
2022-09-23T11:41:25.307Z,1.00
2022-09-23T11:42:25.303Z,1.30
2022-09-23T11:43:25.277Z,1.10
2022-09-23T11:44:25.294Z,1.00
2022-09-23T11:45:25.268Z,1.10
2022-09-23T11:46:25.290Z,1.40
2022-09-23T11:47:26.749Z,1.10
2022-09-23T11:48:25.373Z,1.20
2022-09-23T11:49:25.274Z,1.30
2022-09-23T11:50:25.218Z,0.90
2022-09-23T11:51:25.202Z,1.10
2022-09-23T11:52:25.200Z,1.20
2022-09-23T11:53:25.193Z,1.30
2022-09-23T11:54:25.210Z,1.10
2022-09-23T11:55:25.155Z,1.30
2022-09-23T11:56:33.644Z,1.00
2022-09-23T11:57:26.213Z,1.10
2022-09-23T11:58:26.149Z,1.20
2022-09-23T11:59:36.890Z,1.30
2022-09-23T12:00:26.102Z,1.10
2022-09-23T12:01:35.646Z,1.10
2022-09-23T12:02:30.629Z,1.30
2022-09-23T12:03:37.516Z,1.70
2022-09-23T12:04:26.390Z,2.20
2022-09-23T12:05:25.143Z,1.70
2022-09-23T12:06:25.056Z,1.90
2022-09-23T12:07:25.026Z,1.30
2022-09-23T12:08:25.017Z,1.10
2022-09-23T12:09:47.089Z,0.90
2022-09-23T12:10:25.990Z,1.00
2022-09-23T12:11:25.049Z,1.30
2022-09-23T12:12:27.110Z,1.10
2022-09-23T12:13:24.968Z,1.10
2022-09-23T12:14:24.958Z,1.10
2022-09-23T12:15:24.937Z,1.10
2022-09-23T12:16:25.009Z,1.10
2022-09-23T12:17:24.941Z,1.40
2022-09-23T12:18:24.907Z,1.60
2022-09-23T12:19:24.923Z,1.00
2022-09-23T12:20:24.894Z,1.20
2022-09-23T12:21:46.281Z,1.20
2022-09-23T12:22:25.893Z,1.20
2022-09-23T12:23:24.862Z,1.10
2022-09-23T12:24:24.844Z,1.20
2022-09-23T12:25:24.825Z,1.10
2022-09-23T12:26:24.826Z,1.20
2022-09-23T12:27:24.834Z,0.80
2022-09-23T12:28:24.825Z,1.20
2022-09-23T12:29:24.859Z,0.90
2022-09-23T12:30:24.825Z,1.10
2022-09-23T12:31:24.759Z,1.10
2022-09-23T12:32:24.762Z,1.00
2022-09-23T12:33:24.859Z,1.00
2022-09-23T12:34:24.729Z,1.20
2022-09-23T12:35:24.730Z,1.10
2022-09-23T12:36:24.730Z,1.10
2022-09-23T12:37:24.712Z,1.00
2022-09-23T12:38:24.700Z,0.90
2022-09-23T12:39:24.700Z,1.10
2022-09-23T12:40:24.728Z,1.00
2022-09-23T12:41:24.662Z,0.90
2022-09-23T12:42:28.895Z,0.90
2022-09-23T12:43:25.666Z,1.00
2022-09-23T12:44:24.634Z,1.10
2022-09-23T12:45:24.632Z,1.00
2022-09-23T12:46:24.664Z,1.10
2022-09-23T12:47:24.596Z,0.90
2022-09-23T12:48:24.586Z,1.60
2022-09-23T12:49:24.597Z,1.30
2022-09-23T12:50:24.638Z,1.20
2022-09-23T12:51:24.553Z,1.10
2022-09-23T12:52:24.652Z,0.90
2022-09-23T12:53:24.527Z,1.00
2022-09-23T12:54:24.552Z,1.20
2022-09-23T12:55:24.506Z,1.20
2022-09-23T12:56:24.495Z,1.10
2022-09-23T12:57:24.487Z,1.10
2022-09-23T12:58:24.468Z,1.00
2022-09-23T12:59:24.486Z,1.10
2022-09-23T13:00:24.459Z,1.20
2022-09-23T13:01:24.584Z,1.50
2022-09-23T13:02:24.585Z,1.10
2022-09-23T13:03:24.420Z,1.10
2022-09-23T13:04:24.413Z,1.40
2022-09-23T13:05:24.421Z,1.20
2022-09-23T13:06:24.390Z,1.10
2022-09-23T13:07:24.383Z,1.10
2022-09-23T13:08:24.379Z,1.20
2022-09-23T13:09:24.372Z,1.30
2022-09-23T13:10:24.394Z,1.00
2022-09-23T13:11:24.412Z,1.00
2022-09-23T13:12:24.342Z,1.20
2022-09-23T13:13:24.306Z,1.20
2022-09-23T13:14:27.604Z,1.10
2022-09-23T13:15:24.294Z,0.90
2022-09-23T13:16:24.373Z,1.20
2022-09-23T13:17:24.265Z,0.80
2022-09-23T13:18:24.284Z,1.40